Time;durP1;ratioP1;P1;durP2;ratioP2;P2;SDS_P1;SDS_P2;PMS_P1;PMS_P2;Temp;Humidity;BMP_temperature;BMP_pressure;BME280_temperature;BME280_humidity;BME280_pressure;Samples;Min_cycle;Max_cycle;Signal;HPM_P1;HPM_P2
2023/01/12 00:01:09;;;;;;;3.40;1.52;;;;;;;;;;5052126;28;20052;-76
2023/01/12 00:03:36;;;;;;;4.78;1.55;;;;;;;;;;5051882;28;20061;-76
2023/01/12 00:06:11;;;;;;;3.88;1.40;;;;;;;;;;5052025;28;20059;-77
2023/01/12 00:08:38;;;;;;;2.83;1.50;;;;;;;;;;5051980;28;20064;-76
2023/01/12 00:11:05;;;;;;;2.25;1.30;;;;;;;;;;5041863;28;20132;-76
2023/01/12 00:13:32;;;;;;;3.92;1.48;;;;;;;;;;5043190;28;20049;-76
2023/01/12 00:18:44;;;;;;;4.00;1.43;;;;;;;;;;5051973;28;20048;-76
2023/01/12 00:21:12;;;;;;;2.00;1.30;;;;;;;;;;5051361;28;20048;-76
2023/01/12 00:23:41;;;;;;;2.85;1.48;;;;;;;;;;5051686;28;20135;-76
2023/01/12 00:26:08;;;;;;;1.98;1.30;;;;;;;;;;5051296;28;20049;-76
2023/01/12 00:28:35;;;;;;;2.55;1.65;;;;;;;;;;5051743;28;20079;-76
2023/01/12 00:31:02;;;;;;;2.85;1.42;;;;;;;;;;5051391;28;20083;-76
2023/01/12 00:33:29;;;;;;;3.08;1.45;;;;;;;;;;5050943;28;20077;-76
2023/01/12 00:35:56;;;;;;;3.90;1.48;;;;;;;;;;5050849;28;20067;-76
2023/01/12 00:38:26;;;;;;;3.35;1.50;;;;;;;;;;5051296;28;20119;-76
2023/01/12 00:40:54;;;;;;;2.13;1.45;;;;;;;;;;5051526;28;20118;-76
2023/01/12 00:46:06;;;;;;;2.67;1.50;;;;;;;;;;5051478;28;20041;-75
2023/01/12 00:48:33;;;;;;;2.92;1.40;;;;;;;;;;5050597;28;20521;-75
2023/01/12 00:51:02;;;;;;;2.92;1.30;;;;;;;;;;5051216;28;20467;-75
2023/01/12 00:53:31;;;;;;;2.60;1.40;;;;;;;;;;5050849;28;20053;-76
2023/01/12 00:56:01;;;;;;;3.30;1.50;;;;;;;;;;5050932;28;20132;-77
2023/01/12 00:58:28;;;;;;;4.32;1.45;;;;;;;;;;5051103;28;20053;-76
2023/01/12 01:00:55;;;;;;;2.15;1.20;;;;;;;;;;5050960;28;20072;-77
2023/01/12 01:03:22;;;;;;;2.00;1.38;;;;;;;;;;5050634;28;20063;-77
2023/01/12 01:05:49;;;;;;;3.10;1.30;;;;;;;;;;5050718;28;20070;-76
2023/01/12 01:08:16;;;;;;;2.80;1.48;;;;;;;;;;5051052;28;20095;-75
2023/01/12 01:10:45;;;;;;;1.85;1.10;;;;;;;;;;5050976;28;20067;-75
2023/01/12 01:13:12;;;;;;;2.20;1.20;;;;;;;;;;5050713;28;20439;-77
2023/01/12 01:15:39;;;;;;;2.67;1.25;;;;;;;;;;5050512;28;20053;-75
2023/01/12 01:18:06;;;;;;;2.95;1.45;;;;;;;;;;5030327;28;20084;-75
2023/01/12 01:20:36;;;;;;;2.63;1.40;;;;;;;;;;5030960;28;20061;-75
2023/01/12 01:23:03;;;;;;;2.67;1.50;;;;;;;;;;5030817;28;20057;-75
2023/01/12 01:25:30;;;;;;;2.45;1.15;;;;;;;;;;5030822;28;20057;-75
2023/01/12 01:27:58;;;;;;;3.08;1.45;;;;;;;;;;5030739;28;20549;-75
2023/01/12 01:30:25;;;;;;;2.50;1.42;;;;;;;;;;5037738;28;20509;-75
2023/01/12 01:32:52;;;;;;;3.50;1.42;;;;;;;;;;5050431;28;20478;-75
2023/01/12 01:35:19;;;;;;;3.13;1.33;;;;;;;;;;5050633;28;20088;-76
2023/01/12 01:37:46;;;;;;;1.90;1.23;;;;;;;;;;5050036;28;20139;-76
2023/01/12 01:40:14;;;;;;;2.50;1.55;;;;;;;;;;5050472;28;20140;-76
2023/01/12 01:42:41;;;;;;;3.47;1.50;;;;;;;;;;5050177;28;20081;-76
2023/01/12 01:45:11;;;;;;;1.80;1.20;;;;;;;;;;5050200;28;20103;-76
2023/01/12 01:47:39;;;;;;;2.50;1.27;;;13.50;76.90;;;;;;5050176;28;20139;-76
2023/01/12 01:50:07;;;;;;;3.55;1.55;;;;;;;;;;5050311;28;20064;-76
2023/01/12 01:52:34;;;;;;;2.15;1.30;;;;;;;;;;5050177;28;20059;-76
2023/01/12 01:55:02;;;;;;;2.17;1.50;;;;;;;;;;5050378;28;20604;-76
2023/01/12 01:57:30;;;;;;;2.92;1.30;;;;;;;;;;5050309;28;20139;-76
2023/01/12 01:59:58;;;;;;;4.10;1.40;;;;;;;;;;5049658;28;20405;-76
2023/01/12 02:02:26;;;;;;;3.95;1.50;;;;;;;;;;5049838;28;20053;-76
2023/01/12 02:04:53;;;;;;;2.50;1.20;;;;;;;;;;5050333;28;20136;-76
2023/01/12 02:07:20;;;;;;;3.13;1.42;;;;;;;;;;5050198;28;20132;-76
2023/01/12 02:09:47;;;;;;;2.90;1.35;;;;;;;;;;5049736;28;20102;-76
2023/01/12 02:17:50;;;;;;;4.55;1.35;;;;;;;;;;5049339;28;20037;-76
2023/01/12 02:20:38;;;;;;;3.22;1.30;;;;;;;;;;5050204;28;20136;-76
2023/01/12 02:23:37;;;;;;;2.90;1.30;;;13.40;73.40;;;;;;5050154;28;20060;-76
2023/01/12 02:26:15;;;;;;;4.25;1.33;;;;;;;;;;5050148;28;20056;-76
2023/01/12 02:28:51;;;;;;;3.35;1.33;;;;;;;;;;5049626;28;20136;-76
2023/01/12 02:31:36;;;;;;;3.03;1.33;;;;;;;;;;5050063;28;20067;-76
2023/01/12 02:34:08;;;;;;;2.88;1.23;;;;;;;;;;5049604;28;20056;-76
2023/01/12 02:36:36;;;;;;;2.13;1.15;;;;;;;;;;5049566;28;20056;-76
2023/01/12 02:39:04;;;;;;;2.83;1.25;;;;;;;;;;5049970;28;20053;-76
2023/01/12 02:44:20;;;;;;;3.63;1.40;;;;;;;;;;5033547;28;20049;-76
2023/01/12 02:46:47;;;;;;;1.58;1.10;;;;;;;;;;5033732;28;20061;-76
2023/01/12 02:49:15;;;;;;;2.97;1.38;;;;;;;;;;5033550;28;20063;-76
2023/01/12 02:51:43;;;;;;;2.75;1.25;;;;;;;;;;5033558;28;20055;-76
2023/01/12 02:54:11;;;;;;;2.70;1.23;;;13.40;74.80;;;;;;5033386;28;20054;-76
2023/01/12 02:56:39;;;;;;;3.35;1.40;;;;;;;;;;5041692;28;20481;-76
2023/01/12 02:59:07;;;;;;;2.53;1.38;;;;;;;;;;5049350;28;20513;-76
2023/01/12 03:01:34;;;;;;;2.58;1.20;;;;;;;;;;5033311;28;20071;-76
2023/01/12 03:04:01;;;;;;;3.30;1.30;;;;;;;;;;5033227;28;20132;-76
2023/01/12 03:06:36;;;;;;;3.08;1.25;;;;;;;;;;5046303;28;20049;-76
2023/01/12 03:09:03;;;;;;;1.80;1.20;;;;;;;;;;5053399;28;20454;-76
2023/01/12 03:11:31;;;;;;;3.05;1.30;;;;;;;;;;5053003;28;20059;-76
2023/01/12 03:13:59;;;;;;;2.38;1.05;;;13.40;76.00;;;;;;5052566;28;20049;-77
2023/01/12 03:16:28;;;;;;;3.00;1.30;;;13.40;74.80;;;;;;5052667;28;20132;-76
2023/01/12 03:18:55;;;;;;;1.77;1.27;;;;;;;;;;5052579;28;20053;-76
2023/01/12 03:21:27;;;;;;;2.20;1.25;;;13.30;77.10;;;;;;5053093;28;20057;-76
2023/01/12 03:23:56;;;;;;;2.55;1.30;;;;;;;;;;5052646;28;20516;-76
2023/01/12 03:26:26;;;;;;;1.35;1.02;;;;;;;;;;5053075;28;20405;-76
2023/01/12 03:28:54;;;;;;;2.58;1.35;;;;;;;;;;5052241;28;20049;-76
2023/01/12 03:31:21;;;;;;;2.88;1.27;;;;;;;;;;5052821;28;20060;-76
2023/01/12 03:33:48;;;;;;;2.95;1.30;;;;;;;;;;5052323;28;20541;-76
2023/01/12 03:36:17;;;;;;;4.05;1.30;;;;;;;;;;5052038;28;20084;-76
2023/01/12 03:38:45;;;;;;;3.45;1.30;;;;;;;;;;5052372;28;20056;-76
2023/01/12 03:41:16;;;;;;;2.50;1.23;;;;;;;;;;5052303;28;20489;-76
2023/01/12 03:43:43;;;;;;;2.15;1.10;;;13.30;75.90;;;;;;5052055;28;20053;-76
2023/01/12 03:46:12;;;;;;;3.03;1.20;;;;;;;;;;5052347;28;20482;-76
2023/01/12 03:48:41;;;;;;;4.55;1.30;;;;;;;;;;5052644;28;20063;-76
2023/01/12 03:51:10;;;;;;;2.55;1.17;;;;;;;;;;5053132;28;20168;-76
2023/01/12 03:53:37;;;;;;;2.78;1.23;;;;;;;;;;5052010;28;20082;-76
2023/01/12 03:56:05;;;;;;;4.00;1.50;;;;;;;;;;5042577;28;20389;-76
2023/01/12 03:58:33;;;;;;;2.53;1.30;;;;;;;;;;5045756;28;20136;-76
2023/01/12 04:01:00;;;;;;;1.73;1.20;;;;;;;;;;5052451;28;20132;-76
2023/01/12 04:03:27;;;;;;;3.90;1.40;;;;;;;;;;5052103;28;20083;-76
2023/01/12 04:05:54;;;;;;;2.03;1.20;;;;;;;;;;5052440;28;20555;-76
2023/01/12 04:08:22;;;;;;;3.47;1.35;;;;;;;;;;5052341;28;20140;-76
2023/01/12 04:10:49;;;;;;;2.13;1.20;;;;;;;;;;5052235;28;20057;-76
2023/01/12 04:13:15;;;;;;;2.70;1.38;;;;;;;;;;5042437;28;20049;-76
2023/01/12 04:15:43;;;;;;;2.20;1.20;;;;;;;;;;5032012;28;20046;-76
2023/01/12 04:18:10;;;;;;;2.58;1.27;;;;;;;;;;5032094;28;20060;-76
2023/01/12 04:20:37;;;;;;;2.03;1.10;;;;;;;;;;5031676;28;20057;-76
2023/01/12 04:23:03;;;;;;;2.60;1.13;;;;;;;;;;5031781;28;20136;-76
2023/01/12 04:25:30;;;;;;;3.05;1.40;;;;;;;;;;5031669;28;20056;-76
2023/01/12 04:27:59;;;;;;;1.80;1.08;;;;;;;;;;5051188;28;20092;-76
2023/01/12 04:30:27;;;;;;;2.42;1.20;;;;;;;;;;5051789;28;20064;-76
2023/01/12 04:32:55;;;;;;;2.03;1.30;;;;;;;;;;5051279;28;20053;-76
2023/01/12 04:35:23;;;;;;;2.70;1.17;;;;;;;;;;5052440;28;20059;-76
2023/01/12 04:37:50;;;;;;;2.80;1.20;;;;;;;;;;5050892;28;20504;-77
2023/01/12 04:40:17;;;;;;;1.65;1.40;;;;;;;;;;5051485;28;20485;-76
2023/01/12 04:43:06;;;;;;;1.92;1.10;;;;;;;;;;5051129;28;20516;-76
2023/01/12 04:45:33;;;;;;;2.58;1.13;;;;;;;;;;5051420;28;20540;-76
2023/01/12 04:48:02;;;;;;;2.45;1.20;;;;;;;;;;5052449;28;20049;-76
2023/01/12 04:50:30;;;;;;;1.83;1.00;;;;;;;;;;5051097;28;20053;-76
2023/01/12 04:52:57;;;;;;;1.60;1.10;;;;;;;;;;5035759;28;20061;-77
2023/01/12 04:55:24;;;;;;;2.13;1.20;;;;;;;;;;5039923;28;20053;-76
2023/01/12 04:57:51;;;;;;;1.52;0.88;;;;;;;;;;5051217;28;20063;-76
2023/01/12 05:00:19;;;;;;;2.03;1.10;;;;;;;;;;5050773;28;20055;-76
2023/01/12 05:02:46;;;;;;;1.67;1.15;;;;;;;;;;5050664;28;20056;-76
2023/01/12 05:05:15;;;;;;;1.77;1.17;;;;;;;;;;5050839;28;20554;-77
2023/01/12 05:10:21;;;;;;;2.40;1.17;;;;;;;;;;5050591;28;20132;-77
2023/01/12 05:10:28;;;;;;;2.13;1.02;;;;;;;;;;5050480;28;20063;-76
2023/01/12 05:12:56;;;;;;;1.67;1.08;;;;;;;;;;5050465;28;20041;-76
2023/01/12 05:15:23;;;;;;;2.13;1.15;;;;;;;;;;5050668;28;20045;-77
2023/01/12 05:17:51;;;;;;;1.95;1.00;;;;;;;;;;5050505;28;20140;-76
2023/01/12 05:20:19;;;;;;;2.15;1.20;;;;;;;;;;5050896;28;20065;-76
2023/01/12 05:22:50;;;;;;;2.47;1.05;;;;;;;;;;5051782;28;20131;-76
2023/01/12 05:25:17;;;;;;;2.22;1.13;;;;;;;;;;5050576;28;20144;-77
2023/01/12 05:27:44;;;;;;;1.27;1.00;;;;;;;;;;5050735;28;20152;-76
2023/01/12 05:30:11;;;;;;;2.20;1.30;;;;;;;;;;5050478;28;20092;-76
2023/01/12 05:32:40;;;;;;;1.85;1.20;;;;;;;;;;5050636;28;20136;-77
2023/01/12 05:35:07;;;;;;;2.25;1.10;;;;;;;;;;5050158;28;20589;-77
2023/01/12 05:37:35;;;;;;;1.80;1.10;;;;;;;;;;5049946;28;20056;-76
2023/01/12 05:40:02;;;;;;;1.98;1.17;;;;;;;;;;5050174;28;20144;-76
2023/01/12 05:45:14;;;;;;;1.70;0.90;;;;;;;;;;5050516;28;20490;-76
2023/01/12 05:47:41;;;;;;;1.85;1.00;;;;;;;;;;5047823;28;20482;-76
2023/01/12 05:50:09;;;;;;;1.27;0.90;;;;;;;;;;5030688;28;20135;-77
2023/01/12 05:52:37;;;;;;;2.88;1.17;;;;;;;;;;5037084;28;20136;-77
2023/01/12 05:55:04;;;;;;;1.52;0.90;;;;;;;;;;5050021;28;20045;-76
2023/01/12 05:57:31;;;;;;;1.50;0.88;;;;;;;;;;5049720;28;20445;-76
2023/01/12 05:59:59;;;;;;;1.88;1.15;;;;;;;;;;5051433;28;20454;-77
2023/01/12 06:02:27;;;;;;;1.95;1.05;;;;;;;;;;5050296;28;20409;-76
2023/01/12 06:04:54;;;;;;;1.35;1.00;;;;;;;;;;5050154;28;20080;-77
2023/01/12 06:07:21;;;;;;;2.45;1.20;;;;;;;;;;5050257;28;20071;-76
2023/01/12 06:09:49;;;;;;;2.17;0.93;;;;;;;;;;5050265;28;20057;-76
2023/01/12 06:15:01;;;;;;;2.08;1.00;;;;;;;;;;5051573;28;20053;-76
2023/01/12 06:17:28;;;;;;;1.30;0.90;;;;;;;;;;5054176;28;20131;-76
2023/01/12 06:19:55;;;;;;;1.23;0.90;;;;;;;;;;5054203;28;20057;-77
2023/01/12 06:22:23;;;;;;;1.58;0.95;;;;;;;;;;5053517;28;20094;-76
2023/01/12 06:24:53;;;;;;;1.90;1.00;;;;;;;;;;5054228;28;20053;-76
2023/01/12 06:27:20;;;;;;;2.20;0.95;;;;;;;;;;5053879;28;20136;-76
2023/01/12 06:29:47;;;;;;;1.13;1.02;;;;;;;;;;5055302;28;20406;-76
2023/01/12 06:32:14;;;;;;;1.90;1.10;;;;;;;;;;5054472;28;20045;-76
2023/01/12 06:34:41;;;;;;;1.30;1.00;;;;;;;;;;5053844;28;20053;-77
2023/01/12 06:37:10;;;;;;;2.13;1.00;;;;;;;;;;5053052;28;20586;-76
2023/01/12 06:39:37;;;;;;;1.45;1.00;;;;;;;;;;5053672;28;20063;-76
2023/01/12 06:44:51;;;;;;;1.30;1.00;;;;;;;;;;5053733;28;20053;-76
2023/01/12 06:47:18;;;;;;;1.85;0.95;;;;;;;;;;5053579;28;20537;-76
2023/01/12 06:49:45;;;;;;;1.05;0.80;;;;;;;;;;5053328;28;20474;-76
2023/01/12 06:52:12;;;;;;;0.70;0.70;;;;;;;;;;5053336;28;20057;-76
2023/01/12 06:54:39;;;;;;;0.85;0.80;;;;;;;;;;5053330;28;20053;-76
2023/01/12 06:57:08;;;;;;;2.00;0.93;;;;;;;;;;5053519;28;20058;-76
2023/01/12 06:59:35;;;;;;;2.40;1.17;;;;;;;;;;5053163;28;20524;-76
2023/01/12 07:02:02;;;;;;;1.00;0.90;;;;;;;;;;5053194;28;20528;-77
2023/01/12 07:04:29;;;;;;;1.75;1.00;;;;;;;;;;5053089;28;20497;-76
2023/01/12 07:06:56;;;;;;;1.05;0.90;;;;;;;;;;5053216;28;20494;-76
2023/01/12 07:09:23;;;;;;;1.45;0.90;;;;;;;;;;5053154;28;20474;-76
2023/01/12 07:11:51;;;;;;;1.27;1.00;;;;;;;;;;5053076;28;20071;-76
2023/01/12 07:14:19;;;;;;;1.17;1.00;;;;;;;;;;5052914;28;20136;-76
2023/01/12 07:16:46;;;;;;;1.73;1.00;;;;;;;;;;5052882;28;20040;-76
2023/01/12 07:19:13;;;;;;;1.65;0.93;;;;;;;;;;5052382;28;20057;-76
2023/01/12 07:21:40;;;;;;;1.70;1.00;;;;;;;;;;5053085;28;20057;-76
2023/01/12 07:24:07;;;;;;;1.50;0.90;;;;;;;;;;5052468;28;20055;-76
2023/01/12 07:26:34;;;;;;;1.08;0.88;;;;;;;;;;5052266;28;20052;-76
2023/01/12 07:29:01;;;;;;;1.77;1.00;;;;;;;;;;5052712;28;20145;-76
2023/01/12 07:31:30;;;;;;;1.33;0.80;;;;;;;;;;5053983;28;20053;-76
2023/01/12 07:33:57;;;;;;;0.80;0.80;;;;;;;;;;5052203;28;20059;-76
2023/01/12 07:36:25;;;;;;;1.80;1.10;;;;;;;;;;5052064;28;20048;-76
2023/01/12 07:38:52;;;;;;;1.10;0.90;;;;;;;;;;5052467;28;20086;-76
2023/01/12 07:44:04;;;;;;;1.07;0.80;;;;;;;;;;5049888;28;20052;-76
2023/01/12 07:46:33;;;;;;;0.90;0.80;;;;;;;;;;5052579;28;20542;-78
2023/01/12 07:49:00;;;;;;;1.20;0.80;;;;;;;;;;5032717;28;20053;-77
2023/01/12 07:51:28;;;;;;;1.33;0.98;;;;;;;;;;5032464;28;20057;-77
2023/01/12 07:53:56;;;;;;;1.27;0.90;;;;;;;;;;5032576;28;20415;-77
2023/01/12 07:56:23;;;;;;;1.38;0.95;;;;;;;;;;5032423;28;20056;-77
2023/01/12 07:58:50;;;;;;;2.20;0.98;;;;;;;;;;5032445;28;20057;-77
2023/01/12 08:01:17;;;;;;;1.60;0.90;;;;;;;;;;5032641;28;20064;-77
2023/01/12 08:03:45;;;;;;;2.42;0.68;;;;;;;;;;5051907;28;20063;-77
2023/01/12 08:06:12;;;;;;;1.00;0.80;;;;;;;;;;5052015;28;20509;-77
2023/01/12 08:08:39;;;;;;;2.25;1.00;;;;;;;;;;5051575;28;20136;-77
2023/01/12 08:11:07;;;;;;;6.88;1.20;;;;;;;;;;5051880;28;20132;-77
2023/01/12 08:13:34;;;;;;;1.85;1.00;;;;;;;;;;5051832;28;20056;-77
2023/01/12 08:16:05;;;;;;;0.80;0.80;;;;;;;;;;5052421;28;20071;-77
2023/01/12 08:18:33;;;;;;;2.30;0.93;;;13.90;76.30;;;;;;5051707;28;20057;-77
2023/01/12 08:21:03;;;;;;;3.33;1.05;;;13.90;75.90;;;;;;5051438;28;20512;-77
2023/01/12 08:23:31;;;;;;;1.85;0.98;;;13.90;73.90;;;;;;5051627;28;20128;-78
2023/01/12 08:25:59;;;;;;;2.70;0.80;;;14.00;76.20;;;;;;5051369;28;20521;-79
2023/01/12 08:28:34;;;;;;;1.98;0.90;;;14.00;76.20;;;;;;5051672;28;20474;-77
2023/01/12 08:31:01;;;;;;;2.47;0.90;;;;;;;;;;5050864;28;20055;-77
2023/01/12 08:33:28;;;;;;;1.70;0.98;;;;;;;;;;5050828;28;20049;-76
2023/01/12 08:35:55;;;;;;;1.25;0.80;;;;;;;;;;5050403;28;20118;-77
2023/01/12 08:38:23;;;;;;;3.22;1.00;;;;;;;;;;5048971;28;20135;-77
2023/01/12 08:46:19;;;;;;;1.15;0.82;;;;;;;;;;5051066;28;20041;-78
2023/01/12 08:48:46;;;;;;;2.78;0.90;;;;;;;;;;5050699;28;20468;-77
2023/01/12 08:51:14;;;;;;;0.98;0.80;;;;;;;;;;5050286;28;20387;-78
2023/01/12 08:53:42;;;;;;;1.02;0.85;;;;;;;;;;5050205;28;20419;-77
2023/01/12 08:56:09;;;;;;;1.65;0.90;;;;;;;;;;5050454;28;20088;-79
2023/01/12 08:58:36;;;;;;;1.23;0.73;;;;;;;;;;5051132;28;20082;-77
2023/01/12 09:01:08;;;;;;;1.15;0.80;;;;;;;;;;5050973;28;20057;-77
2023/01/12 09:03:35;;;;;;;2.10;1.00;;;;;;;;;;5049560;28;20059;-77
2023/01/12 09:06:08;;;;;;;0.93;0.77;;;;;;;;;;5050239;28;20132;-77
2023/01/12 09:08:35;;;;;;;1.05;0.80;;;;;;;;;;5051611;28;20139;-78
2023/01/12 09:11:04;;;;;;;1.63;1.00;;;;;;;;;;5050539;28;20124;-77
2023/01/12 09:13:31;;;;;;;0.90;0.80;;;;;;;;;;5050482;28;20088;-77
2023/01/12 09:16:02;;;;;;;1.65;0.80;;;;;;;;;;5050399;28;20045;-78
2023/01/12 09:18:29;;;;;;;1.20;0.88;;;;;;;;;;5050795;28;20131;-78
2023/01/12 09:21:00;;;;;;;1.50;1.10;;;;;;;;;;5050632;28;20049;-77
2023/01/12 09:23:27;;;;;;;0.75;0.75;;;;;;;;;;5050140;28;20048;-77
2023/01/12 09:25:55;;;;;;;2.00;0.90;;;;;;;;;;5050557;28;20045;-77
2023/01/12 09:28:23;;;;;;;1.65;0.95;;;;;;;;;;5050756;28;20055;-77
2023/01/12 09:30:50;;;;;;;1.00;0.80;;;;;;;;;;5050900;28;20079;-78
2023/01/12 09:33:17;;;;;;;1.13;0.95;;;;;;;;;;5050124;28;20076;-77
2023/01/12 09:35:45;;;;;;;1.15;0.80;;;;;;;;;;5050853;28;20059;-77
2023/01/12 09:38:12;;;;;;;2.63;0.95;;;;;;;;;;5050223;28;20060;-77
2023/01/12 09:40:42;;;;;;;1.42;0.80;;;;;;;;;;5050618;28;20509;-77
2023/01/12 09:48:41;;;;;;;3.80;1.15;;;;;;;;;;5044836;28;20049;-77
2023/01/12 09:51:10;;;;;;;5.22;1.38;;;14.70;75.00;;;;;;5053466;28;20056;-77
2023/01/12 09:53:37;;;;;;;3.40;1.20;;;;;;;;;;5053977;28;20139;-76
2023/01/12 09:56:04;;;;;;;4.50;1.20;;;;;;;;;;5053517;28;20124;-76
2023/01/12 09:58:41;;;;;;;4.75;1.40;;;14.80;74.80;;;;;;5053752;28;20502;-76
2023/01/12 10:01:10;;;;;;;3.97;1.40;;;;;;;;;;5043367;28;20139;-76
2023/01/12 10:03:37;;;;;;;5.03;1.50;;;;;;;;;;5054994;28;20044;-76
2023/01/12 10:06:04;;;;;;;5.35;1.30;;;;;;;;;;5053980;28;20045;-76
2023/01/12 10:08:33;;;;;;;7.47;1.70;;;;;;;;;;5053704;28;20140;-77
2023/01/12 10:11:02;;;;;;;3.75;1.60;;;;;;;;;;5053483;28;20067;-77
2023/01/12 10:13:38;;;;;;;4.20;1.30;;;14.90;74.80;;;;;;5051609;28;20124;-78
2023/01/12 10:16:06;;;;;;;4.57;1.35;;;14.90;73.10;;;;;;5054045;28;20041;-77
2023/01/12 10:18:35;;;;;;;4.40;1.48;;;;;;;;;;5053256;28;20144;-77
2023/01/12 10:21:02;;;;;;;3.38;1.20;;;;;;;;;;5054728;28;20076;-77
2023/01/12 10:23:29;;;;;;;2.90;1.27;;;;;;;;;;5052643;28;20053;-76
2023/01/12 10:25:59;;;;;;;5.88;1.50;;;14.80;74.70;;;;;;5053787;28;20053;-77
2023/01/12 10:28:26;;;;;;;5.97;1.60;;;;;;;;;;5053521;28;20080;-77
2023/01/12 10:30:53;;;;;;;4.68;1.52;;;;;;;;;;5053218;28;20049;-76
2023/01/12 10:33:21;;;;;;;3.67;1.45;;;15.00;73.80;;;;;;5053277;28;21505;-77
2023/01/12 10:35:54;;;;;;;5.90;1.70;;;15.00;74.80;;;;;;5050664;28;20109;-76
2023/01/12 10:38:22;;;;;;;4.47;1.73;;;;;;;;;;5052678;28;20144;-76
2023/01/12 10:41:02;;;;;;;5.15;1.55;;;;;;;;;;5051986;28;20057;-77
2023/01/12 10:43:32;;;;;;;4.80;1.50;;;;;;;;;;5051744;28;20516;-76
2023/01/12 10:46:03;;;;;;;4.65;1.42;;;;;;;;;;5044005;28;20068;-77
2023/01/12 10:48:31;;;;;;;4.85;1.48;;;;;;;;;;5052993;28;20059;-77
2023/01/12 10:50:59;;;;;;;3.13;1.50;;;;;;;;;;5052746;28;20067;-77
2023/01/12 10:53:28;;;;;;;3.85;1.60;;;;;;;;;;5052806;28;20053;-76
2023/01/12 10:55:55;;;;;;;2.88;1.40;;;;;;;;;;5053481;28;20045;-77
2023/01/12 10:58:23;;;;;;;3.15;1.40;;;;;;;;;;5053178;28;20659;-76
2023/01/12 11:00:50;;;;;;;4.43;1.42;;;;;;;;;;5052377;28;20131;-76
2023/01/12 11:03:31;;;;;;;2.83;1.42;;;;;;;;;;5052938;28;20053;-77
2023/01/12 11:06:07;;;;;;;5.30;1.50;;;;;;;;;;5053134;28;20057;-76
2023/01/12 11:08:34;;;;;;;2.75;1.40;;;;;;;;;;5052377;28;20464;-77
2023/01/12 11:11:06;;;;;;;4.07;1.50;;;;;;;;;;5056837;28;20441;-77
2023/01/12 11:13:36;;;;;;;3.80;1.58;;;;;;;;;;5051998;28;20056;-76
2023/01/12 11:16:05;;;;;;;3.65;1.30;;;;;;;;;;5054146;28;20668;-77
2023/01/12 11:18:35;;;;;;;2.75;1.38;;;14.90;74.90;;;;;;5052888;28;20131;-77
2023/01/12 11:21:02;;;;;;;2.97;1.42;;;;;;;;;;5052483;28;20059;-78
2023/01/12 11:23:33;;;;;;;4.95;1.60;;;14.90;75.00;;;;;;5052635;28;20513;-77
2023/01/12 11:26:00;;;;;;;3.42;1.70;;;;;;;;;;5063896;28;20049;-79
2023/01/12 11:28:28;;;;;;;4.22;1.60;;;;;;;;;;5052436;28;20049;-77
2023/01/12 11:30:55;;;;;;;3.78;1.40;;;;;;;;;;5052434;28;20135;-77
2023/01/12 11:33:23;;;;;;;3.80;1.40;;;;;;;;;;5052709;28;20140;-77
2023/01/12 11:35:52;;;;;;;5.47;1.50;;;;;;;;;;5051866;28;20063;-78
2023/01/12 11:38:19;;;;;;;3.15;1.40;;;;;;;;;;5051630;28;20413;-77
2023/01/12 11:40:48;;;;;;;3.97;1.42;;;;;;;;;;5051933;28;20486;-82
2023/01/12 11:46:04;;;;;;;3.25;1.50;;;;;;;;;;5050248;28;20490;-77
2023/01/12 11:48:34;;;;;;;4.53;1.48;;;14.70;75.30;;;;;;5051443;28;20521;-78
2023/01/12 11:51:01;;;;;;;3.47;1.65;;;;;;;;;;5049487;28;20464;-77
2023/01/12 11:53:28;;;;;;;3.17;1.30;;;;;;;;;;5051427;28;20132;-79
2023/01/12 11:56:17;;;;;;;3.50;1.60;;;14.70;75.30;;;;;;5049195;28;20057;-77
2023/01/12 11:58:47;;;;;;;4.55;1.40;;;;;;;;;;5051699;28;20132;-79
2023/01/12 12:01:16;;;;;;;4.35;1.50;;;;;;;;;;5052406;28;20065;-77
2023/01/12 12:03:49;;;;;;;4.57;1.35;;;;;;;;;;5051135;28;20490;-79
2023/01/12 12:06:37;;;;;;;2.88;1.30;;;14.80;75.20;;;;;;5051987;28;20554;-77
2023/01/12 12:09:06;;;;;;;4.07;1.60;;;;;;;;;;5051985;28;20057;-77
2023/01/12 12:11:37;;;;;;;3.33;1.60;;;14.70;75.50;;;;;;5052481;28;20136;-77
2023/01/12 12:14:07;;;;;;;2.85;1.40;;;;;;;;;;5052252;28;20057;-77
2023/01/12 12:16:36;;;;;;;3.60;1.58;;;;;;;;;;5051847;28;20051;-77
2023/01/12 12:19:07;;;;;;;3.90;1.35;;;;;;;;;;5053085;28;20131;-77
2023/01/12 12:21:37;;;;;;;3.42;1.60;;;;;;;;;;5051429;28;20063;-77
2023/01/12 12:24:06;;;;;;;3.53;1.75;;;;;;;;;;5051540;28;20052;-77
2023/01/12 12:26:36;;;;;;;2.65;1.30;;;14.70;75.60;;;;;;5070516;28;20136;-78
2023/01/12 12:29:22;;;;;;;3.63;1.40;;;14.70;75.70;;;;;;5057475;28;20456;-76
2023/01/12 12:31:53;;;;;;;3.72;1.73;;;;;;;;;;5050112;28;20056;-77
2023/01/12 12:34:42;;;;;;;2.45;1.20;;;14.60;75.70;;;;;;5051630;28;20063;-77
2023/01/12 12:37:11;;;;;;;3.78;1.35;;;;;;;;;;5039096;28;20520;-80
2023/01/12 12:39:59;;;;;;;4.38;1.50;;;;;;;;;;5051171;28;20056;-77
2023/01/12 12:45:22;;;;;;;5.88;2.33;;;;;;;;;;5051794;28;20488;-76
2023/01/12 12:48:01;;;;;;;3.20;1.40;;;14.50;75.80;;;;;;5051016;28;20044;-76
2023/01/12 12:50:29;;;;;;;2.95;1.40;;;;;;;;;;5051542;28;20460;-77
2023/01/12 12:53:04;;;;;;;2.63;1.40;;;;;;;;;;5051303;28;20059;-77
2023/01/12 12:55:31;;;;;;;2.88;1.30;;;;;;;;;;5051422;28;20128;-76
2023/01/12 12:58:00;;;;;;;2.38;1.20;;;;;;;;;;5051612;28;20045;-79
2023/01/12 13:00:31;;;;;;;4.15;1.40;;;;;;;;;;5050678;28;20049;-76
2023/01/12 13:02:58;;;;;;;2.92;1.60;;;;;;;;;;5050888;28;20049;-76
2023/01/12 13:05:40;;;;;;;3.58;1.20;;;;;;;;;;5051007;28;20053;-78
2023/01/12 13:08:15;;;;;;;5.60;1.50;;;;;;;;;;5049380;28;20049;-77
2023/01/12 13:10:47;;;;;;;8.93;1.58;;;;;;;;;;5051115;28;20060;-78
2023/01/12 13:13:26;;;;;;;4.57;1.27;;;;;;;;;;5041913;28;20140;-79
2023/01/12 13:16:28;;;;;;;4.57;1.58;;;14.50;76.20;;;;;;5035873;28;20493;-77
2023/01/12 13:19:05;;;;;;;3.75;1.48;;;;;;;;;;5050692;28;20048;-79
2023/01/12 13:21:32;;;;;;;4.05;1.50;;;;;;;;;;5047400;28;20042;-78
2023/01/12 13:24:22;;;;;;;3.85;1.40;;;;;;;;;;5030499;28;20517;-77
2023/01/12 13:26:51;;;;;;;6.13;1.60;;;;;;;;;;5030990;28;20049;-79
2023/01/12 13:29:37;;;;;;;2.40;1.30;;;;;;;;;;5031602;28;20064;-78
2023/01/12 13:32:23;;;;;;;3.65;1.40;;;;;;;;;;5050894;28;20057;-78
2023/01/12 13:34:51;;;;;;;6.45;1.65;;;;;;;;;;5050503;28;20067;-78
2023/01/12 13:37:20;;;;;;;4.47;1.52;;;;;;;;;;5042404;28;20080;-77
2023/01/12 13:39:50;;;;;;;2.38;1.10;;;14.50;74.50;;;;;;5049925;28;20079;-77
2023/01/12 13:45:02;;;;;;;4.15;1.30;;;;;;;;;;5048091;28;20084;-77
2023/01/12 13:47:31;;;;;;;4.13;1.50;;;;;;;;;;5050699;28;20132;-77
2023/01/12 13:50:00;;;;;;;4.45;1.58;;;14.50;74.40;;;;;;5050183;28;20056;-76
2023/01/12 13:52:28;;;;;;;2.95;1.20;;;;;;;;;;5050179;28;20144;-76
2023/01/12 13:54:55;;;;;;;5.20;1.50;;;;;;;;;;5050168;28;20057;-76
2023/01/12 13:57:23;;;;;;;4.47;1.40;;;14.50;74.60;;;;;;5050612;28;20049;-76
2023/01/12 14:00:03;;;;;;;4.72;1.27;;;;;;;;;;5050525;28;20087;-76
2023/01/12 14:02:31;;;;;;;2.90;1.50;;;;;;;;;;5050211;28;20053;-76
2023/01/12 14:05:12;;;;;;;3.75;1.60;;;14.40;76.40;;;;;;5050265;28;20072;-76
2023/01/12 14:07:49;;;;;;;3.70;1.20;;;;;;;;;;5050014;28;20045;-76
2023/01/12 14:10:23;;;;;;;4.35;1.30;;;14.40;74.70;;;;;;5050615;28;20099;-76
2023/01/12 14:13:08;;;;;;;2.80;1.10;;;14.50;76.20;;;;;;5044549;28;20128;-76
2023/01/12 14:18:20;;;;;;;3.88;1.23;;;;;;;;;;5037895;28;20049;-76
2023/01/12 14:20:49;;;;;;;3.65;1.40;;;;;;;;;;5050717;28;20140;-76
2023/01/12 14:23:18;;;;;;;2.83;1.30;;;14.50;75.90;;;;;;5049831;28;20045;-76
2023/01/12 14:25:45;;;;;;;3.33;1.25;;;;;;;;;;5050393;28;20136;-76
2023/01/12 14:28:15;;;;;;;4.53;1.20;;;;;;;;;;5050656;28;20067;-76
2023/01/12 14:30:45;;;;;;;4.38;1.55;;;;;;;;;;5049745;28;20057;-76
2023/01/12 14:33:15;;;;;;;3.20;1.30;;;;;;;;;;5050254;28;20579;-75
2023/01/12 14:35:44;;;;;;;2.33;1.20;;;;;;;;;;5051122;28;20053;-76
2023/01/12 14:38:12;;;;;;;6.25;1.50;;;;;;;;;;5052642;28;20045;-76
2023/01/12 14:40:39;;;;;;;3.20;1.30;;;;;;;;;;5052884;28;20052;-76
2023/01/12 14:48:42;;;;;;;3.58;1.38;;;;;;;;;;5066702;28;20300;-76
2023/01/12 14:51:29;;;;;;;3.28;1.30;;;;;;;;;;5033610;28;20463;-77
2023/01/12 14:53:59;;;;;;;4.07;1.50;;;14.60;74.20;;;;;;5033694;28;20066;-76
2023/01/12 14:56:27;;;;;;;2.92;1.30;;;14.50;76.40;;;;;;5042134;28;20115;-76
2023/01/12 14:58:54;;;;;;;2.72;1.40;;;;;;;;;;5052773;28;20040;-76
2023/01/12 15:01:27;;;;;;;4.22;1.20;;;;;;;;;;5053260;28;20053;-76
2023/01/12 15:03:54;;;;;;;2.80;1.20;;;;;;;;;;5052895;28;20059;-76
2023/01/12 15:06:21;;;;;;;3.22;1.30;;;;;;;;;;5053245;28;20067;-75
2023/01/12 15:08:55;;;;;;;2.63;1.20;;;;;;;;;;5053161;28;20128;-76
2023/01/12 15:11:30;;;;;;;3.75;1.27;;;;;;;;;;5053351;28;20052;-76
2023/01/12 15:13:57;;;;;;;;;;;14.50;76.50;;;;;;5042432;28;20053;-81
2023/01/12 15:27:28;;;;;;;3.03;1.27;;;;;;;;;;5053831;28;20079;-77
2023/01/12 15:29:55;;;;;;;4.75;1.70;;;;;;;;;;5054131;28;20478;-79
2023/01/12 15:32:23;;;;;;;8.30;1.58;;;;;;;;;;5055743;28;20103;-77
2023/01/12 15:34:50;;;;;;;9.10;1.85;;;;;;;;;;5054365;28;20057;-77
2023/01/12 15:37:17;;;;;;;5.97;2.22;;;;;;;;;;5044981;28;20092;-78
2023/01/12 15:39:44;;;;;;;7.25;1.90;;;;;;;;;;5035229;28;20050;-78
2023/01/12 15:42:20;;;;;;;9.38;2.13;;;;;;;;;;5035050;28;20053;-78
2023/01/12 15:44:49;;;;;;;7.85;2.00;;;;;;;;;;5035876;28;20072;-75